Jackson County Reynolds Field
KJXN : now visible

Airfield :











YOU CAN JOIN US ON...

 
LOGIN :

Register | Disclaimer

   EN    FR    IT 

 









Legend :    VFR   Marginal VFR   IFR   Intensive IFR   Very Intensive IFR
Visi :
Ceiling :
>= 8 km
>= 3000ft
5 to 8 km
1000 to 3000 ft
1500m to 5 km
500 to 1000 ft
800 to 1500m
200 to 500 ft
< 800m
< 200 ft
Symbols :   Thunderstorms  Fog  Heavy snow  Heavy precipitations  Wind > 20 kt






- Airport Elevation : 1001 ft


KJXN - Jackson County Reynolds Field

CURRENT METAR :
  • 141456Z 23014G25KT 10SM CLR 22/09 A2966 RMK AO2 PK WND 23028/1425 SLP042 T02170089 55005 $

EXPIRED METARs :
  • 141356Z 23014G24KT 10SM CLR 19/08 A2966 RMK AO2 PK WND 22026/1314 SLP043 T01940083 $
  • 141256Z 22014G26KT 10SM CLR 17/08 A2968 RMK AO2 PK WND 21031/1212 SLP048 T01720078 $
  • 141156Z 22013G24KT 10SM CLR 16/07 A2968 RMK AO2 SLP048 T01560072 10156 20083 56012 $
  • 141056Z 21016KT 10SM FEW050 15/07 A2968 RMK AO2 PK WND 22028/1022 SLP048 T01500067 $

TAF KJXN
Valid from the 14 at 12:00 until the 15 at 12:00 UTC


141140Z 1412/1512 23016G24KT P6SM FEW230 WS020/27050KT
FM141500 26016G26KT P6SM BKN150
FM141900 29013G21KT P6SM SKC
FM150700 36006KT P6SM FEW250
KZOB FIR / North America



MET'MAP, your aeronautical weather chart ! - Copyright ORBIFLY December 2007 - Disclaimer

ORBIFLY MET'MAP TEAM :

Programming & Development : Alexandra Zaïnal
Original concept : Baudouin d'Aumeries
Technical & hardware support : Manuel Goepfert
Assistance : Marc-Olivier Méhu




SOURCES & CREDITS :

   NOAA       Earth
Advisory